Time;durP1;ratioP1;P1;durP2;ratioP2;P2;SDS_P1;SDS_P2;PMS_P1;PMS_P2;Temp;Humidity;BMP_temperature;BMP_pressure;BME280_temperature;BME280_humidity;BME280_pressure;Samples;Min_cycle;Max_cycle;Signal;HPM_P1;HPM_P2
2022/07/03 08:28:58;;;;;;;2.33;2.10;;;26.20;66.90;;;;;;5017173;28;20462;-82
2022/07/03 08:31:25;;;;;;;5.47;2.20;;;26.20;66.90;;;;;;4998334;28;20447;-83
2022/07/03 08:33:52;;;;;;;1.87;1.57;;;26.20;66.90;;;;;;5005332;28;20444;-91
2022/07/03 08:36:22;;;;;;;3.40;1.80;;;26.20;66.70;;;;;;4999800;28;20516;-85
2022/07/03 08:38:49;;;;;;;3.70;1.90;;;26.20;66.80;;;;;;4995740;28;20479;-85
2022/07/03 08:41:19;;;;;;;3.63;2.07;;;26.20;66.70;;;;;;4995286;28;20484;-85
2022/07/03 08:43:48;;;;;;;2.20;1.53;;;26.20;66.70;;;;;;4995970;28;20484;-85
2022/07/03 08:46:16;;;;;;;3.90;1.50;;;26.20;66.60;;;;;;4995422;28;20437;-85
2022/07/03 08:48:45;;;;;;;1.60;1.50;;;26.20;66.60;;;;;;4995617;28;20528;-85
2022/07/03 08:51:12;;;;;;;2.10;1.80;;;26.30;66.70;;;;;;4995475;28;20484;-85
2022/07/03 08:53:39;;;;;;;1.97;1.47;;;26.20;66.60;;;;;;4996052;28;20424;-85
2022/07/03 08:56:09;;;;;;;2.40;1.83;;;26.30;66.70;;;;;;4995871;28;20452;-85
2022/07/03 08:58:36;;;;;;;3.10;1.60;;;26.20;66.60;;;;;;4994937;28;20484;-85
2022/07/03 09:01:03;;;;;;;4.60;1.33;;;26.30;66.70;;;;;;4994866;28;20542;-85
2022/07/03 09:03:32;;;;;;;1.90;1.57;;;26.20;66.60;;;;;;4994605;28;20559;-85
2022/07/03 09:06:00;;;;;;;1.77;1.60;;;26.20;66.60;;;;;;4996098;28;20479;-84
2022/07/03 09:08:28;;;;;;;1.77;1.33;;;26.30;66.70;;;;;;4993813;28;20444;-84
2022/07/03 09:10:55;;;;;;;2.07;1.50;;;26.30;66.70;;;;;;4994549;28;20570;-85
2022/07/03 09:13:22;;;;;;;2.87;1.60;;;26.30;66.70;;;;;;4996431;28;20487;-84
2022/07/03 09:15:49;;;;;;;2.20;1.60;;;26.30;66.80;;;;;;4995051;28;20440;-84
2022/07/03 09:18:15;;;;;;;2.67;1.87;;;26.20;66.70;;;;;;4995847;28;20487;-84
2022/07/03 09:20:44;;;;;;;2.70;1.73;;;26.20;66.60;;;;;;4997921;28;20604;-85
2022/07/03 09:23:16;;;;;;;2.50;1.60;;;26.30;66.70;;;;;;5000018;28;20490;-85
2022/07/03 09:25:54;;;;;;;2.63;1.17;;;26.20;66.70;;;;;;4998883;28;20471;-85
2022/07/03 09:28:22;;;;;;;2.20;1.40;;;26.30;66.70;;;;;;5000394;28;20472;-85
2022/07/03 09:30:58;;;;;;;1.70;1.40;;;26.20;66.70;;;;;;5014216;28;21002;-85
2022/07/03 09:33:25;;;;;;;1.20;1.10;;;26.30;66.70;;;;;;5021968;28;20450;-84
2022/07/03 09:35:55;;;;;;;1.83;1.00;;;26.30;66.80;;;;;;5018650;28;20929;-84
2022/07/03 09:38:23;;;;;;;1.87;1.33;;;26.30;66.70;;;;;;5019699;28;20477;-84
2022/07/03 09:40:51;;;;;;;2.13;1.73;;;26.30;66.70;;;;;;5018519;28;20475;-84
2022/07/03 09:43:25;;;;;;;1.20;1.10;;;26.20;66.60;;;;;;5017500;28;20443;-84
2022/07/03 09:45:55;;;;;;;2.97;1.43;;;26.30;66.70;;;;;;5020275;28;20470;-84
2022/07/03 09:48:27;;;;;;;1.20;1.10;;;26.30;66.80;;;;;;5019386;28;20471;-84
2022/07/03 09:51:23;;;;;;;1.67;1.47;;;26.30;66.80;;;;;;5017547;28;20847;-84
2022/07/03 09:53:55;;;;;;;1.73;1.30;;;26.30;66.70;;;;;;5017729;28;20439;-85
2022/07/03 09:56:23;;;;;;;1.27;1.17;;;26.30;66.80;;;;;;5017912;28;20494;-85
2022/07/03 09:59:07;;;;;;;1.93;1.00;;;26.30;66.80;;;;;;5019393;28;21016;-85
2022/07/03 10:01:36;;;;;;;1.27;1.17;;;26.30;66.70;;;;;;5015807;28;20461;-84
2022/07/03 10:04:14;;;;;;;2.43;1.67;;;26.30;67.70;;;;;;5020901;28;20534;-85
2022/07/03 10:06:54;;;;;;;2.20;1.47;;;26.30;66.80;;;;;;5019586;28;20447;-84
2022/07/03 10:09:23;;;;;;;1.53;1.20;;;26.30;66.80;;;;;;5018591;28;20523;-83
2022/07/03 10:11:51;;;;;;;1.60;1.30;;;26.20;66.80;;;;;;5018642;28;20529;-84
2022/07/03 10:14:19;;;;;;;1.40;1.30;;;26.30;66.80;;;;;;5017293;28;20471;-83
2022/07/03 10:16:47;;;;;;;2.10;1.23;;;26.30;66.80;;;;;;5020522;28;20452;-84
2022/07/03 10:19:18;;;;;;;2.47;1.23;;;26.30;66.80;;;;;;5017089;28;20477;-83
2022/07/03 10:21:52;;;;;;;1.80;1.23;;;26.30;66.80;;;;;;5017913;28;20823;-83
2022/07/03 10:24:21;;;;;;;3.87;1.60;;;26.30;66.80;;;;;;5016745;28;20938;-84
2022/07/03 10:26:49;;;;;;;1.50;1.13;;;26.30;66.80;;;;;;5019168;28;20443;-84
2022/07/03 10:29:17;;;;;;;3.67;1.30;;;26.30;66.80;;;;;;5017318;28;20492;-84
2022/07/03 10:31:47;;;;;;;1.60;1.30;;;26.30;66.80;;;;;;5016655;28;20443;-84
2022/07/03 10:34:19;;;;;;;1.50;1.30;;;26.30;66.80;;;;;;5017170;28;20468;-84
2022/07/03 10:36:48;;;;;;;3.33;1.23;;;26.30;66.80;;;;;;5017536;28;20439;-84
2022/07/03 10:39:28;;;;;;;1.87;1.33;;;26.30;66.80;;;;;;5019140;28;20534;-84
2022/07/03 10:45:03;;;;;;;1.20;1.07;;;26.30;66.80;;;;;;5021161;28;20431;-84
2022/07/03 10:47:41;;;;;;;1.53;1.33;;;26.30;66.80;;;;;;5017136;28;20478;-84
2022/07/03 10:50:12;;;;;;;2.47;1.10;;;26.30;66.80;;;;;;5017968;28;20522;-84
2022/07/03 10:52:39;;;;;;;1.63;1.27;;;26.30;66.80;;;;;;5016022;28;20776;-85
2022/07/03 10:55:08;;;;;;;2.43;1.30;;;26.30;66.80;;;;;;5019475;28;20448;-84
2022/07/03 10:57:36;;;;;;;1.37;1.10;;;26.30;66.80;;;;;;5016373;28;20957;-84
2022/07/03 11:00:13;;;;;;;1.10;1.00;;;26.30;67.70;;;;;;5017078;28;20534;-84
2022/07/03 11:02:41;;;;;;;1.30;1.03;;;26.30;66.80;;;;;;5018203;28;20482;-85
2022/07/03 11:05:22;;;;;;;1.70;1.60;;;26.30;66.80;;;;;;5019259;28;20893;-85
2022/07/03 11:08:15;;;;;;;1.20;1.10;;;26.30;66.80;;;;;;5016475;28;20440;-85
2022/07/03 11:10:44;;;;;;;1.87;1.20;;;26.40;66.90;;;;;;5016457;28;20529;-85
2022/07/03 11:13:22;;;;;;;1.73;1.20;;;26.30;67.00;;;;;;5018084;28;20448;-84
2022/07/03 11:15:51;;;;;;;1.60;1.30;;;26.30;66.90;;;;;;5015830;28;20970;-85
2022/07/03 11:18:25;;;;;;;1.60;1.40;;;26.30;66.90;;;;;;5017878;28;20502;-84
2022/07/03 11:21:23;;;;;;;1.17;0.97;;;26.30;66.90;;;;;;5017048;28;20530;-85
2022/07/03 11:24:32;;;;;;;1.60;1.17;;;26.40;66.90;;;;;;5018545;28;20447;-84
2022/07/03 11:27:19;;;;;;;1.00;0.90;;;26.30;66.90;;;;;;5017701;28;20479;-84
2022/07/03 11:29:56;;;;;;;1.20;1.10;;;26.30;66.90;;;;;;5014657;28;20507;-84
2022/07/03 11:32:49;;;;;;;1.80;1.00;;;26.30;67.00;;;;;;5017434;28;20475;-84
2022/07/03 11:35:51;;;;;;;1.43;1.33;;;26.30;66.90;;;;;;5008372;28;20467;-84
2022/07/03 11:38:27;;;;;;;1.27;1.00;;;26.30;66.90;;;;;;5017369;28;20487;-84
2022/07/03 11:40:55;;;;;;;1.40;1.10;;;26.30;67.10;;;;;;5018141;28;20831;-85
2022/07/03 11:43:24;;;;;;;1.20;1.00;;;26.30;67.00;;;;;;5015566;28;20435;-85
2022/07/03 11:45:51;;;;;;;1.20;1.10;;;26.30;67.10;;;;;;5015384;28;20493;-85
2022/07/03 11:48:20;;;;;;;1.23;1.10;;;26.30;67.00;;;;;;5014574;28;20526;-84
2022/07/03 11:50:49;;;;;;;1.10;1.00;;;26.30;66.90;;;;;;5016558;28;20519;-85
2022/07/03 11:53:20;;;;;;;1.30;1.10;;;26.30;66.90;;;;;;5016603;28;20842;-85
2022/07/03 11:55:48;;;;;;;1.17;1.07;;;26.30;66.90;;;;;;5017222;28;20531;-85
2022/07/03 11:58:15;;;;;;;1.50;1.00;;;26.30;66.90;;;;;;5016122;28;20505;-84
2022/07/03 12:00:43;;;;;;;1.00;0.90;;;26.30;67.00;;;;;;5016235;28;20440;-84
2022/07/03 12:03:16;;;;;;;1.17;1.00;;;26.30;66.90;;;;;;5017270;28;20470;-84
2022/07/03 12:05:55;;;;;;;1.10;1.00;;;26.30;67.00;;;;;;5015349;28;20439;-84
2022/07/03 12:08:27;;;;;;;2.20;1.00;;;26.40;67.00;;;;;;5019640;28;20436;-84
2022/07/03 12:11:02;;;;;;;1.20;1.10;;;26.40;67.00;;;;;;5015280;28;20581;-84
2022/07/03 12:13:30;;;;;;;1.53;1.00;;;26.30;66.90;;;;;;5016141;28;20447;-84
2022/07/03 12:16:05;;;;;;;1.50;1.10;;;26.30;67.00;;;;;;5015025;28;20539;-85
2022/07/03 12:18:47;;;;;;;1.40;1.10;;;26.40;67.10;;;;;;5016966;28;20435;-85
2022/07/03 12:21:13;;;;;;;1.43;1.00;;;26.40;66.90;;;;;;5015562;28;20435;-85
2022/07/03 12:23:49;;;;;;;1.40;1.10;;;26.30;66.90;;;;;;5016016;28;20478;-84
2022/07/03 12:26:32;;;;;;;1.53;1.03;;;26.40;67.00;;;;;;5014898;28;20443;-84
2022/07/03 12:29:00;;;;;;;1.33;1.23;;;26.40;67.80;;;;;;5018113;28;20444;-85
2022/07/03 12:31:29;;;;;;;1.30;1.00;;;26.40;67.00;;;;;;5015342;28;20898;-85
2022/07/03 12:33:57;;;;;;;1.40;1.07;;;26.30;66.90;;;;;;5014308;28;20546;-85
2022/07/03 12:36:25;;;;;;;1.17;1.07;;;26.30;66.90;;;;;;5017295;28;20522;-86
2022/07/03 12:38:54;;;;;;;1.10;1.00;;;26.40;67.00;;;;;;5015504;28;20432;-85
2022/07/03 12:41:21;;;;;;;1.20;1.00;;;26.40;67.00;;;;;;5017430;28;20443;-92
2022/07/03 12:43:49;;;;;;;1.10;0.90;;;26.40;67.00;;;;;;5014231;28;20448;-85
2022/07/03 12:46:20;;;;;;;1.17;1.00;;;26.40;66.90;;;;;;5014554;28;20443;-85
2022/07/03 12:48:54;;;;;;;1.17;0.90;;;26.40;66.90;;;;;;5015112;28;20470;-85
2022/07/03 12:51:41;;;;;;;1.13;1.00;;;26.40;66.90;;;;;;5016178;28;20577;-84
2022/07/03 12:54:09;;;;;;;1.17;1.07;;;26.40;66.80;;;;;;5018224;28;20501;-84
2022/07/03 12:56:37;;;;;;;1.37;1.27;;;26.40;67.00;;;;;;5022552;28;20451;-84
2022/07/03 12:59:18;;;;;;;1.50;1.07;;;26.40;67.00;;;;;;5019705;28;20538;-85
2022/07/03 13:01:46;;;;;;;1.10;1.00;;;26.40;67.00;;;;;;5018053;28;20440;-82
2022/07/03 13:04:30;;;;;;;1.47;1.20;;;26.40;67.00;;;;;;5017591;28;20514;-84
2022/07/03 13:07:01;;;;;;;1.20;0.90;;;26.40;66.90;;;;;;5020927;28;20435;-85
2022/07/03 13:09:28;;;;;;;1.30;0.90;;;26.40;66.90;;;;;;5018035;28;20522;-85
2022/07/03 13:11:55;;;;;;;1.20;1.10;;;26.40;66.90;;;;;;5017339;28;20483;-85
2022/07/03 13:14:24;;;;;;;1.57;0.90;;;26.40;66.90;;;;;;5018402;28;20494;-84
2022/07/03 13:16:52;;;;;;;1.20;1.10;;;26.40;66.90;;;;;;5018890;28;20530;-84
2022/07/03 13:19:21;;;;;;;1.00;0.80;;;26.40;66.90;;;;;;5022363;28;20861;-85
2022/07/03 13:21:50;;;;;;;1.10;0.90;;;26.40;66.90;;;;;;5021243;28;20501;-84
2022/07/03 13:24:18;;;;;;;1.03;0.90;;;26.40;66.90;;;;;;5018086;28;20435;-84
2022/07/03 13:26:45;;;;;;;1.37;1.00;;;26.40;66.90;;;;;;5021978;28;20830;-85
2022/07/03 13:29:12;;;;;;;1.00;0.83;;;26.40;66.90;;;;;;5017983;28;20525;-85
2022/07/03 13:31:39;;;;;;;1.17;1.00;;;26.40;66.90;;;;;;5018821;28;20840;-85
2022/07/03 13:34:06;;;;;;;1.30;0.90;;;26.40;66.90;;;;;;5019742;28;20521;-84
2022/07/03 13:36:35;;;;;;;1.10;0.80;;;26.40;66.90;;;;;;5019831;28;20493;-85
2022/07/03 13:39:02;;;;;;;1.10;0.90;;;26.40;66.90;;;;;;5019098;28;20439;-85
2022/07/03 13:41:29;;;;;;;1.20;1.00;;;26.40;66.90;;;;;;5018917;28;20485;-85
2022/07/03 13:43:56;;;;;;;1.10;1.00;;;26.40;66.90;;;;;;5017861;28;20849;-85
2022/07/03 13:46:24;;;;;;;1.17;0.80;;;26.40;67.00;;;;;;5019796;28;20435;-85
2022/07/03 13:48:54;;;;;;;1.07;0.90;;;26.40;66.90;;;;;;5018460;28;20488;-85
2022/07/03 13:51:21;;;;;;;1.33;0.90;;;26.40;66.90;;;;;;5018350;28;20565;-85
2022/07/03 13:53:50;;;;;;;1.10;1.00;;;26.40;66.90;;;;;;5020884;28;20494;-85
2022/07/03 13:56:18;;;;;;;1.10;1.00;;;26.40;66.90;;;;;;5021915;28;20488;-85
2022/07/03 13:58:45;;;;;;;1.17;1.07;;;26.40;66.90;;;;;;5019033;28;20954;-84
2022/07/03 14:01:12;;;;;;;1.20;1.10;;;26.40;66.90;;;;;;5018330;28;20443;-84
2022/07/03 14:03:39;;;;;;;1.40;0.97;;;26.40;66.90;;;;;;5018990;28;20534;-85
2022/07/03 14:06:06;;;;;;;1.30;0.80;;;26.40;66.90;;;;;;5020247;28;20459;-87
2022/07/03 14:08:33;;;;;;;1.00;0.80;;;26.40;66.90;;;;;;5017962;28;20452;-85
2022/07/03 14:11:01;;;;;;;1.00;0.80;;;26.40;66.90;;;;;;5017335;28;20478;-90
2022/07/03 14:13:28;;;;;;;1.40;0.90;;;26.40;66.80;;;;;;5018862;28;20839;-85
2022/07/03 14:15:55;;;;;;;1.10;1.00;;;26.50;67.00;;;;;;5018506;28;20470;-85
2022/07/03 14:18:22;;;;;;;1.23;1.07;;;26.40;66.80;;;;;;5020283;28;20497;-86
2022/07/03 14:20:49;;;;;;;1.67;1.00;;;26.40;66.80;;;;;;5018223;28;20439;-85
2022/07/03 14:23:16;;;;;;;1.00;0.90;;;26.40;66.90;;;;;;5019153;28;20874;-85
2022/07/03 14:25:43;;;;;;;1.00;0.90;;;26.40;66.90;;;;;;5019838;28;20499;-85
2022/07/03 14:33:40;;;;;;;1.00;0.80;;;26.40;66.90;;;;;;5030523;28;20454;-90
2022/07/03 14:36:07;;;;;;;1.00;0.80;;;26.40;67.00;;;;;;5033348;28;20435;-94
2022/07/03 14:38:35;;;;;;;1.10;1.00;;;26.40;66.90;;;;;;5029183;28;20474;-96
2022/07/03 14:41:02;;;;;;;1.07;0.90;;;26.40;66.90;;;;;;5033766;28;20446;-86
2022/07/03 14:43:31;;;;;;;1.10;1.00;;;26.40;66.80;;;;;;5031062;28;20439;-85
2022/07/03 14:45:57;;;;;;;1.77;1.17;;;26.40;66.80;;;;;;5020762;28;20440;-86
2022/07/03 14:48:24;;;;;;;1.10;1.00;;;26.40;66.80;;;;;;5024560;28;20447;-84
2022/07/03 14:50:51;;;;;;;1.73;1.00;;;26.40;66.80;;;;;;5022361;28;20547;-89
2022/07/03 14:53:19;;;;;;;1.30;1.20;;;26.40;66.80;;;;;;5030534;28;20475;-87
2022/07/03 14:55:45;;;;;;;1.40;1.00;;;26.40;66.80;;;;;;5026836;28;20495;-85
2022/07/03 14:58:30;;;;;;;1.00;0.90;;;26.40;66.90;;;;;;5032014;28;20459;-85
2022/07/03 15:00:58;;;;;;;1.20;1.10;;;26.40;66.80;;;;;;5018731;28;20474;-85
2022/07/03 15:03:29;;;;;;;1.10;0.80;;;26.40;66.90;;;;;;5016280;28;20821;-85
2022/07/03 15:05:58;;;;;;;1.03;0.83;;;26.40;66.90;;;;;;5020216;28;20448;-85
2022/07/03 15:08:44;;;;;;;0.97;0.80;;;26.40;66.90;;;;;;5017713;28;20447;-85
2022/07/03 15:12:26;;;;;;;0.90;0.80;;;26.40;66.80;;;;;;5019533;28;20493;-85
2022/07/03 15:14:07;;;;;;;1.10;0.80;;;26.40;66.90;;;;;;5020111;28;20418;-84
2022/07/03 15:16:35;;;;;;;1.27;1.00;;;26.40;66.90;;;;;;5017321;28;20502;-84
2022/07/03 15:19:03;;;;;;;1.30;0.90;;;26.40;66.90;;;;;;5017762;28;20463;-84
2022/07/03 15:21:32;;;;;;;1.07;0.97;;;26.40;66.90;;;;;;5015022;28;20444;-84
2022/07/03 15:24:02;;;;;;;1.03;0.80;;;26.40;66.90;;;;;;5014951;28;20534;-84
2022/07/03 15:26:31;;;;;;;1.00;0.90;;;26.40;66.90;;;;;;5015382;28;20916;-84
2022/07/03 15:29:00;;;;;;;1.00;0.80;;;26.40;66.90;;;;;;5014642;28;20515;-85
2022/07/03 15:31:34;;;;;;;1.20;1.00;;;26.40;66.90;;;;;;5015666;28;20487;-85
2022/07/03 15:34:04;;;;;;;1.20;1.00;;;26.40;66.90;;;;;;5015286;28;20521;-85
2022/07/03 15:36:39;;;;;;;1.10;0.90;;;26.40;66.90;;;;;;5015244;28;20850;-86
2022/07/03 15:39:08;;;;;;;0.97;0.80;;;26.40;66.90;;;;;;5017725;28;20478;-84
2022/07/03 15:41:45;;;;;;;1.13;1.00;;;26.40;66.90;;;;;;5015275;28;20568;-85
2022/07/03 15:44:21;;;;;;;1.30;1.00;;;26.40;66.90;;;;;;5016136;28;20505;-87
2022/07/03 15:47:00;;;;;;;1.77;1.20;;;26.40;66.90;;;;;;5015228;28;20439;-88
2022/07/03 15:49:28;;;;;;;1.23;1.13;;;26.40;66.80;;;;;;5014320;28;20506;-88
2022/07/03 15:52:11;;;;;;;2.80;1.40;;;26.40;66.70;;;;;;5014186;28;20575;-87
2022/07/03 15:54:48;;;;;;;1.60;1.30;;;26.50;66.70;;;;;;5014227;28;20442;-87
2022/07/03 15:57:23;;;;;;;5.50;1.30;;;26.40;66.60;;;;;;5014628;28;20847;-86
2022/07/03 15:59:57;;;;;;;1.67;1.40;;;26.40;66.20;;;;;;5013680;28;20443;-85
2022/07/03 16:02:33;;;;;;;2.43;1.30;;;26.40;65.90;;;;;;5014330;28;20513;-85
2022/07/03 16:05:06;;;;;;;2.17;1.20;;;26.50;65.80;;;;;;5015090;28;20447;-90
2022/07/03 16:07:36;;;;;;;2.43;1.33;;;26.40;65.80;;;;;;5014454;28;20452;-90
2022/07/03 16:10:05;;;;;;;3.57;1.60;;;26.50;65.90;;;;;;5014531;28;20448;-90
2022/07/03 16:12:32;;;;;;;1.80;1.43;;;26.50;65.90;;;;;;5014584;28;20495;-89
2022/07/03 16:15:02;;;;;;;1.47;1.33;;;26.40;65.80;;;;;;5014205;28;20506;-91
2022/07/03 16:17:32;;;;;;;1.60;1.27;;;26.50;66.00;;;;;;5013991;28;20450;-91
2022/07/03 16:20:02;;;;;;;2.23;1.10;;;26.50;66.10;;;;;;5013892;28;20535;-91
2022/07/03 16:22:29;;;;;;;3.70;1.13;;;26.50;66.10;;;;;;5014693;28;20439;-93
2022/07/03 16:24:58;;;;;;;1.40;1.30;;;26.50;66.00;;;;;;5015300;28;20535;-93
2022/07/03 16:27:27;;;;;;;1.47;1.00;;;26.50;66.00;;;;;;5013913;28;20534;-93
2022/07/03 16:29:56;;;;;;;3.23;1.07;;;26.50;66.10;;;;;;5013878;28;20861;-87
2022/07/03 16:32:28;;;;;;;4.33;1.50;;;26.50;66.00;;;;;;5014159;28;20491;-91
2022/07/03 16:35:03;;;;;;;2.07;0.90;;;26.50;66.00;;;;;;5014153;28;20454;-92
2022/07/03 16:37:36;;;;;;;1.40;1.07;;;26.50;66.00;;;;;;5013792;28;20534;-91
2022/07/03 16:40:05;;;;;;;1.40;1.20;;;26.50;66.00;;;;;;5015521;28;20450;-92
2022/07/03 16:42:35;;;;;;;1.47;1.23;;;26.50;66.10;;;;;;5013716;28;20457;-93
2022/07/03 16:45:06;;;;;;;1.77;1.67;;;26.50;66.10;;;;;;5013759;28;20440;-92
2022/07/03 16:47:40;;;;;;;2.70;1.20;;;26.50;66.20;;;;;;5014425;28;20524;-92
2022/07/03 16:50:12;;;;;;;2.13;1.60;;;26.50;66.20;;;;;;5014785;28;20443;-91
2022/07/03 16:52:40;;;;;;;2.80;1.30;;;26.50;66.10;;;;;;5013715;28;20479;-92
2022/07/03 16:55:09;;;;;;;4.63;0.90;;;26.50;66.20;;;;;;5013986;28;21003;-92
2022/07/03 16:57:43;;;;;;;1.93;1.17;;;26.50;66.20;;;;;;5014253;28;20443;-92
2022/07/03 17:00:13;;;;;;;1.97;0.97;;;26.50;66.10;;;;;;5014794;28;20507;-92
2022/07/03 17:02:42;;;;;;;3.93;1.30;;;26.50;66.10;;;;;;5014267;28;20474;-92
2022/07/03 17:05:14;;;;;;;2.40;1.13;;;26.50;66.20;;;;;;5014201;28;20534;-92
2022/07/03 17:07:43;;;;;;;1.97;1.20;;;26.50;66.10;;;;;;5014587;28;20494;-93
2022/07/03 17:10:10;;;;;;;5.43;1.33;;;26.50;66.10;;;;;;5014782;28;20527;-93
2022/07/03 17:12:38;;;;;;;2.80;1.10;;;26.50;66.10;;;;;;5014178;28;20525;-94
2022/07/03 17:15:07;;;;;;;1.30;1.00;;;26.50;66.10;;;;;;5014808;28;20543;-94
2022/07/03 17:17:34;;;;;;;1.20;1.10;;;26.50;66.10;;;;;;5014344;28;20452;-95
2022/07/03 17:20:05;;;;;;;1.53;1.20;;;26.50;66.10;;;;;;5014380;28;20811;-86
2022/07/03 17:22:34;;;;;;;1.57;1.23;;;26.50;66.10;;;;;;5013615;28;20490;-86
2022/07/03 17:25:03;;;;;;;1.17;1.03;;;26.50;66.10;;;;;;5013399;28;20444;-86
2022/07/03 17:27:57;;;;;;;2.07;1.00;;;26.50;66.10;;;;;;5013676;28;20452;-95
2022/07/03 17:30:31;;;;;;;1.10;0.80;;;26.50;65.90;;;;;;5000145;28;20595;-84
2022/07/03 17:33:01;;;;;;;1.23;0.90;;;26.50;66.00;;;;;;5013337;28;20523;-92
2022/07/03 17:35:29;;;;;;;1.73;0.90;;;26.50;66.10;;;;;;5013287;28;20843;-85
2022/07/03 17:37:58;;;;;;;2.30;0.90;;;26.50;66.00;;;;;;5013250;28;20538;-82
2022/07/03 17:40:40;;;;;;;1.73;1.00;;;26.50;66.00;;;;;;5026722;28;20485;-92
2022/07/03 17:52:25;;;;;;;1.43;1.20;;;26.50;66.10;;;;;;5038587;28;20987;-94
2022/07/03 17:54:55;;;;;;;1.63;0.97;;;26.50;66.10;;;;;;5038269;28;20453;-93
2022/07/03 17:57:40;;;;;;;1.43;1.00;;;26.40;66.00;;;;;;5036991;28;20453;-89
2022/07/03 18:00:11;;;;;;;3.27;0.83;;;26.50;66.10;;;;;;5040854;28;20438;-89
2022/07/03 18:02:39;;;;;;;1.30;1.10;;;26.40;66.00;;;;;;5039171;28;20520;-84
2022/07/03 18:05:07;;;;;;;1.00;0.80;;;26.50;66.10;;;;;;5036318;28;20478;-84
2022/07/03 18:07:46;;;;;;;1.30;1.00;;;26.50;66.10;;;;;;5035809;28;20470;-81
2022/07/03 18:10:19;;;;;;;2.13;1.30;;;26.50;66.10;;;;;;5036031;28;20478;-81
2022/07/03 18:13:00;;;;;;;1.00;0.80;;;26.50;66.20;;;;;;5036011;28;20482;-89
2022/07/03 18:15:35;;;;;;;1.17;0.90;;;26.50;66.10;;;;;;5036490;28;20455;-88
2022/07/03 18:25:15;;;;;;;1.37;0.93;;;26.50;66.40;;;;;;4978681;28;20420;-82
2022/07/03 18:27:46;;;;;;;2.27;1.07;;;26.40;66.50;;;;;;4986046;28;20964;-82
2022/07/03 18:30:13;;;;;;;2.60;1.57;;;26.40;66.50;;;;;;4994075;28;20448;-82
2022/07/03 18:32:41;;;;;;;2.27;1.17;;;26.40;66.40;;;;;;4994000;28;20520;-81
2022/07/03 18:35:09;;;;;;;2.13;1.00;;;26.40;66.40;;;;;;4994389;28;20971;-82
2022/07/03 18:37:37;;;;;;;3.37;1.03;;;26.40;66.40;;;;;;4994522;28;20452;-83
2022/07/03 18:40:05;;;;;;;1.10;0.80;;;26.40;66.30;;;;;;4975318;28;20449;-83
2022/07/03 18:42:32;;;;;;;1.50;1.00;;;26.40;66.20;;;;;;4975589;28;20481;-83
2022/07/03 18:45:04;;;;;;;1.87;1.10;;;26.40;66.20;;;;;;4997993;28;21024;-93
2022/07/03 18:47:31;;;;;;;1.03;0.90;;;26.40;66.20;;;;;;5035245;28;20538;-88
2022/07/03 18:50:02;;;;;;;3.77;1.00;;;26.40;66.10;;;;;;5035273;28;20514;-92
2022/07/03 18:55:33;;;;;;;2.07;1.07;;;26.30;65.80;;;;;;5033658;28;20415;-83
2022/07/03 18:58:10;;;;;;;1.90;1.10;;;26.40;65.90;;;;;;5034377;28;20443;-94
2022/07/03 19:00:44;;;;;;;3.17;0.90;;;26.40;65.90;;;;;;5035227;28;20920;-84
2022/07/03 19:03:13;;;;;;;2.40;1.00;;;26.40;65.80;;;;;;5034936;28;20485;-84
2022/07/03 19:05:47;;;;;;;1.57;1.10;;;26.40;65.70;;;;;;5035622;28;20434;-84
2022/07/03 19:08:21;;;;;;;2.70;1.00;;;26.40;65.70;;;;;;5036306;28;20453;-88
2022/07/03 19:10:51;;;;;;;2.33;0.97;;;26.50;65.40;;;;;;5032666;28;20790;-86
2022/07/03 19:13:22;;;;;;;2.20;1.10;;;26.40;65.30;;;;;;5035741;28;20522;-85
2022/07/03 19:15:53;;;;;;;2.23;1.20;;;26.40;65.60;;;;;;5038051;28;20483;-84
2022/07/03 19:18:20;;;;;;;1.20;0.90;;;26.40;66.50;;;;;;5036158;28;20449;-93
2022/07/03 19:24:11;;;;;;;1.40;1.10;;;26.50;65.90;;;;;;5044618;28;20426;-94
2022/07/03 19:26:39;;;;;;;2.30;1.03;;;26.40;66.00;;;;;;5035054;28;20506;-88
